Tenjinmaru No11 — JD3353 — position and weather

sailwx.info

Track history (hours):
 
Tides and Currents Weather Stations Pressure Air Temp Water Temp Dewpoint Dewpoint Depression Visibility Wind Speed Wind Dir Waves Ship Positions

Tenjinmaru No11

Last reported at 2016-Apr-25 04:32 UTC. Time now 2016-May-03 20:06 UTC.
Position N 33°45' E 130°04'.
Warning: this ship's position is 8 days out of date.

Length 75 m; draft 4.8 m.

Type: Cargo ship. MMSI: 431003485.

Date/timePositionNaut miles runAvg speedWind from/ knotsBaromVisibWave heightAir tempDewpointWater temp
2016-Apr-25 04:32N 33°45' E 130°04'1211.2
2016-Apr-25 03:30N 33°51' E 130°15'2111.0
2016-Apr-25 01:32N 33°58' E 130°40'22010.4
2016-Apr-24 04:24N 34°37' E 135°03'8 8.8
2016-Apr-24 03:33N 34°29' E 135°03'1211.0
2016-Apr-24 02:29N 34°18' E 134°59'238 8.8
2016-Apr-22 23:26N 35°08' E 139°43'910.9
2016-Apr-22 22:33N 35°17' E 139°45'8 8.2
2016-Apr-22 21:33N 35°25' E 139°47'5 5.2
2016-Apr-22 20:33N 35°21' E 139°51'0 0.0
2016-Apr-22 19:32N 35°21' E 139°51'0 0.0
2016-Apr-22 18:29N 35°21' E 139°51'0 0.0
2016-Apr-22 17:32N 35°21' E 139°51'0 0.0
2016-Apr-22 16:32N 35°21' E 139°51'0 0.0
2016-Apr-22 15:32N 35°21' E 139°51'0 0.0
2016-Apr-22 14:32N 35°21' E 139°51'0 0.0
2016-Apr-22 13:32N 35°21' E 139°51'0 0.0
2016-Apr-22 12:32N 35°21' E 139°51'0 0.0
2016-Apr-22 11:29N 35°21' E 139°51'0 0.0
2016-Apr-22 10:32N 35°21' E 139°51'0 0.0
2016-Apr-22 09:32N 35°21' E 139°51'0 0.0
2016-Apr-22 08:32N 35°21' E 139°51'0 0.0
2016-Apr-22 07:32N 35°21' E 139°51'0 0.0
2016-Apr-22 06:32N 35°21' E 139°51'0 0.0
2016-Apr-22 05:32N 35°21' E 139°51'0 0.0
2016-Apr-22 04:29N 35°21' E 139°51'0 0.0
2016-Apr-22 03:32N 35°21' E 139°51'0 0.0
2016-Apr-22 02:29N 35°21' E 139°51'0 0.0
2016-Apr-22 01:32N 35°21' E 139°51'0 0.0
2016-Apr-22 00:32N 35°21' E 139°51'0 0.0
2016-Apr-21 23:32N 35°21' E 139°51'0 0.0
2016-Apr-21 22:32N 35°21' E 139°51'0 0.0
2016-Apr-21 21:32N 35°21' E 139°51'0 0.0
2016-Apr-21 20:32N 35°21' E 139°51'0 0.0
2016-Apr-21 19:29N 35°21' E 139°51'0 0.0
2016-Apr-21 18:32N 35°21' E 139°51'0 0.0
2016-Apr-21 17:26N 35°21' E 139°51'0 0.0
2016-Apr-21 16:32N 35°21' E 139°51'0 0.0
2016-Apr-21 15:32N 35°21' E 139°51'0 0.0
2016-Apr-21 14:23N 35°21' E 139°51'0 0.0
2016-Apr-21 13:23N 35°21' E 139°51'0 0.0
2016-Apr-21 12:26N 35°21' E 139°51'0 0.0
2016-Apr-21 11:32N 35°21' E 139°51'0 0.0
2016-Apr-21 10:26N 35°21' E 139°51'0 0.0
2016-Apr-21 09:29N 35°21' E 139°51'0 0.0
2016-Apr-21 08:23N 35°21' E 139°51'0 0.0
2016-Apr-21 07:29N 35°21' E 139°51'0 0.1
2016-Apr-21 06:33N 35°21' E 139°51'0 0.4
2016-Apr-21 05:30N 35°21' E 139°51'0 0.0
2016-Apr-21 04:30N 35°21' E 139°51'0 0.0
2016-Apr-21 03:34N 35°21' E 139°51'0 0.0
2016-Apr-21 02:31N 35°21' E 139°51'0 0.0
2016-Apr-21 01:22N 35°21' E 139°51'0 0.0
2016-Apr-21 00:34N 35°21' E 139°51'0 0.0
2016-Apr-20 23:30N 35°21' E 139°51'0 0.0
2016-Apr-20 22:28N 35°21' E 139°51'0 0.1
2016-Apr-20 21:30N 35°21' E 139°51'0 0.1
2016-Apr-20 20:33N 35°21' E 139°51'0 0.2
2016-Apr-20 19:32N 35°22' E 139°51'0 0.0
2016-Apr-20 18:32N 35°22' E 139°51'0 0.0
2016-Apr-20 17:32N 35°22' E 139°51'0 0.0
2016-Apr-20 16:32N 35°22' E 139°51'0 0.0
2016-Apr-20 15:32N 35°22' E 139°51'0 0.0
2016-Apr-20 14:32N 35°22' E 139°51'0 0.1
2016-Apr-20 13:34N 35°21' E 139°51'1 1.2
2016-Apr-20 12:33N 35°22' E 139°49'0 0.1
2016-Apr-20 11:33N 35°22' E 139°49'0 0.0
2016-Apr-20 10:33N 35°22' E 139°49'0 0.0
2016-Apr-20 09:33N 35°22' E 139°49'0 0.0
2016-Apr-20 08:21N 35°22' E 139°49'0 0.0
2016-Apr-20 07:33N 35°22' E 139°49'0 0.0
2016-Apr-20 06:30N 35°22' E 139°49'0 0.0
2016-Apr-20 05:33N 35°22' E 139°49'0 0.0
2016-Apr-20 04:33N 35°22' E 139°49'0 0.0
2016-Apr-20 03:24N 35°22' E 139°49'0 0.0
2016-Apr-20 02:33N 35°22' E 139°49'0 0.1
2016-Apr-20 01:33N 35°22' E 139°49'0 0.0
2016-Apr-20 00:33N 35°22' E 139°49'0 0.0
2016-Apr-19 23:33N 35°22' E 139°49'0 0.0
2016-Apr-19 22:33N 35°22' E 139°49'0 0.0
2016-Apr-19 21:33N 35°22' E 139°49'0 0.0
2016-Apr-19 20:33N 35°22' E 139°49'0 0.0
2016-Apr-19 19:33N 35°22' E 139°49'0 0.0
2016-Apr-19 18:33N 35°22' E 139°49'0 0.0
2016-Apr-19 17:33N 35°22' E 139°49'0 0.0
2016-Apr-19 16:33N 35°22' E 139°49'0 0.0
2016-Apr-19 15:33N 35°22' E 139°49'0 0.0
2016-Apr-19 14:33N 35°22' E 139°49'0 0.0
2016-Apr-19 13:33N 35°22' E 139°49'0 0.0
2016-Apr-19 12:33N 35°22' E 139°49'0 0.0
2016-Apr-19 11:33N 35°22' E 139°49'0 0.0
2016-Apr-19 10:33N 35°22' E 139°49'0 0.0
2016-Apr-19 09:33N 35°22' E 139°49'0 0.1
2016-Apr-19 08:24N 35°22' E 139°49'0 0.0
2016-Apr-19 07:33N 35°22' E 139°49'0 0.0
2016-Apr-19 06:33N 35°22' E 139°49'0 0.0
2016-Apr-19 05:33N 35°22' E 139°49'0 0.0
2016-Apr-19 04:33N 35°22' E 139°49'0 0.0
2016-Apr-19 03:30N 35°22' E 139°49'0 0.0
2016-Apr-19 02:33N 35°22' E 139°49'0 0.1
2016-Apr-19 01:33N 35°22' E 139°49'0 0.0
2016-Apr-19 00:33N 35°22' E 139°49'0 0.0
2016-Apr-18 23:33N 35°22' E 139°49'0 0.0
2016-Apr-18 22:33N 35°22' E 139°49'0 0.0
2016-Apr-18 21:33N 35°22' E 139°49'0 0.0
2016-Apr-18 20:33N 35°22' E 139°49'0 0.0
2016-Apr-18 19:33N 35°22' E 139°49'4 4.5
2016-Apr-18 18:33N 35°20' E 139°44'1110.6
2016-Apr-18 17:33N 35°10' E 139°47'1310.6
2016-Apr-18 16:19N 34°57' E 139°44'56 8.0
2016-Apr-18 09:19N 35°28' E 140°42'9 9.2
2016-Apr-18 08:20N 35°35' E 140°48'7 8.8
2016-Apr-18 07:31N 35°41' E 140°53'19 9.6
2016-Apr-18 05:32N 35°58' E 140°43'3 0.5
2016-Apr-17 23:30N 35°56' E 140°40'0 0.0
2016-Apr-17 21:12N 35°56' E 140°40'0 0.0
2016-Apr-17 17:06N 35°56' E 140°40'0 0.0
2016-Apr-16 18:24N 35°56' E 140°40'0 0.0
2016-Apr-16 15:30N 35°56' E 140°40'0 0.0
2016-Apr-16 14:18N 35°56' E 140°40'0 0.0
2016-Apr-16 13:24N 35°56' E 140°40'0 0.0
2016-Apr-16 11:30N 35°56' E 140°40'0 0.0
2016-Apr-16 10:24N 35°56' E 140°40'0 0.0
2016-Apr-16 09:12N 35°56' E 140°40'0 0.0
2016-Apr-16 08:12N 35°56' E 140°40'0 0.0
2016-Apr-16 05:12N 35°56' E 140°40'0 0.0
2016-Apr-16 04:24N 35°56' E 140°40'0 0.0
2016-Apr-16 03:30N 35°56' E 140°40'0 0.0
2016-Apr-16 02:33N 35°56' E 140°40'0 0.0
2016-Apr-16 01:30N 35°56' E 140°40'0 0.0
2016-Apr-16 00:33N 35°56' E 140°40'0 0.0
2016-Apr-15 23:18N 35°56' E 140°40'0 0.0
2016-Apr-15 22:18N 35°56' E 140°40'0 0.0
2016-Apr-15 20:27N 35°56' E 140°40'0 0.0
2016-Apr-15 19:27N 35°56' E 140°40'0 0.0
2016-Apr-15 18:27N 35°56' E 140°40'0 0.2
2016-Apr-15 17:34N 35°55' E 140°40'6 6.2
2016-Apr-15 16:33N 35°54' E 140°47'1111.4
2016-Apr-15 15:33N 35°44' E 140°54'1210.6
2016-Apr-15 14:25N 35°33' E 140°47'1011.2
2016-Apr-15 13:33N 35°26' E 140°40'1211.2
2016-Apr-15 12:30N 35°16' E 140°32'1111.2
2016-Apr-15 11:29N 35°07' E 140°24'1112.2
2016-Apr-15 10:33N 35°00' E 140°12'1412.0
2016-Apr-15 09:23N 34°53' E 139°58'11 9.9
2016-Apr-15 08:14N 34°56' E 139°44'811.7
2016-Apr-15 07:32N 35°04' E 139°45'1212.1
2016-Apr-15 06:33N 35°16' E 139°45'9 9.0
2016-Apr-15 05:33N 35°25' E 139°47'  
Track history (hours):
 
Tides and Currents Weather Stations Pressure Air Temp Water Temp Dewpoint Dewpoint Depression Visibility Wind Speed Wind Dir Waves Ship Positions

Tenjinmaru No11

Last reported at 2016-Apr-25 04:32 UTC. Time now 2016-May-03 20:06 UTC.
Position N 33°45' E 130°04'.
Warning: this ship's position is 8 days out of date.

Length 75 m; draft 4.8 m.

Type: Cargo ship. MMSI: 431003485.

Date/timePositionNaut miles runAvg speedWind from/ knotsBaromVisibWave heightAir tempDewpointWater temp
2016-Apr-25 04:32N 33°45' E 130°04'1211.2
2016-Apr-25 03:30N 33°51' E 130°15'2111.0
2016-Apr-25 01:32N 33°58' E 130°40'22010.4
2016-Apr-24 04:24N 34°37' E 135°03'8 8.8
2016-Apr-24 03:33N 34°29' E 135°03'1211.0
2016-Apr-24 02:29N 34°18' E 134°59'238 8.8
2016-Apr-22 23:26N 35°08' E 139°43'910.9
2016-Apr-22 22:33N 35°17' E 139°45'8 8.2
2016-Apr-22 21:33N 35°25' E 139°47'5 5.2
2016-Apr-22 20:33N 35°21' E 139°51'0 0.0
2016-Apr-22 19:32N 35°21' E 139°51'0 0.0
2016-Apr-22 18:29N 35°21' E 139°51'0 0.0
2016-Apr-22 17:32N 35°21' E 139°51'0 0.0
2016-Apr-22 16:32N 35°21' E 139°51'0 0.0
2016-Apr-22 15:32N 35°21' E 139°51'0 0.0
2016-Apr-22 14:32N 35°21' E 139°51'0 0.0
2016-Apr-22 13:32N 35°21' E 139°51'0 0.0
2016-Apr-22 12:32N 35°21' E 139°51'0 0.0
2016-Apr-22 11:29N 35°21' E 139°51'0 0.0
2016-Apr-22 10:32N 35°21' E 139°51'0 0.0
2016-Apr-22 09:32N 35°21' E 139°51'0 0.0
2016-Apr-22 08:32N 35°21' E 139°51'0 0.0
2016-Apr-22 07:32N 35°21' E 139°51'0 0.0
2016-Apr-22 06:32N 35°21' E 139°51'0 0.0
2016-Apr-22 05:32N 35°21' E 139°51'0 0.0
2016-Apr-22 04:29N 35°21' E 139°51'0 0.0
2016-Apr-22 03:32N 35°21' E 139°51'0 0.0
2016-Apr-22 02:29N 35°21' E 139°51'0 0.0
2016-Apr-22 01:32N 35°21' E 139°51'0 0.0
2016-Apr-22 00:32N 35°21' E 139°51'0 0.0
2016-Apr-21 23:32N 35°21' E 139°51'0 0.0
2016-Apr-21 22:32N 35°21' E 139°51'0 0.0
2016-Apr-21 21:32N 35°21' E 139°51'0 0.0
2016-Apr-21 20:32N 35°21' E 139°51'0 0.0
2016-Apr-21 19:29N 35°21' E 139°51'0 0.0
2016-Apr-21 18:32N 35°21' E 139°51'0 0.0
2016-Apr-21 17:26N 35°21' E 139°51'0 0.0
2016-Apr-21 16:32N 35°21' E 139°51'0 0.0
2016-Apr-21 15:32N 35°21' E 139°51'0 0.0
2016-Apr-21 14:23N 35°21' E 139°51'0 0.0
2016-Apr-21 13:23N 35°21' E 139°51'0 0.0
2016-Apr-21 12:26N 35°21' E 139°51'0 0.0
2016-Apr-21 11:32N 35°21' E 139°51'0 0.0
2016-Apr-21 10:26N 35°21' E 139°51'0 0.0
2016-Apr-21 09:29N 35°21' E 139°51'0 0.0
2016-Apr-21 08:23N 35°21' E 139°51'0 0.0
2016-Apr-21 07:29N 35°21' E 139°51'0 0.1
2016-Apr-21 06:33N 35°21' E 139°51'0 0.4
2016-Apr-21 05:30N 35°21' E 139°51'0 0.0
2016-Apr-21 04:30N 35°21' E 139°51'0 0.0
2016-Apr-21 03:34N 35°21' E 139°51'0 0.0
2016-Apr-21 02:31N 35°21' E 139°51'0 0.0
2016-Apr-21 01:22N 35°21' E 139°51'0 0.0
2016-Apr-21 00:34N 35°21' E 139°51'0 0.0
2016-Apr-20 23:30N 35°21' E 139°51'0 0.0
2016-Apr-20 22:28N 35°21' E 139°51'0 0.1
2016-Apr-20 21:30N 35°21' E 139°51'0 0.1
2016-Apr-20 20:33N 35°21' E 139°51'0 0.2
2016-Apr-20 19:32N 35°22' E 139°51'0 0.0
2016-Apr-20 18:32N 35°22' E 139°51'0 0.0
2016-Apr-20 17:32N 35°22' E 139°51'0 0.0
2016-Apr-20 16:32N 35°22' E 139°51'0 0.0
2016-Apr-20 15:32N 35°22' E 139°51'0 0.0
2016-Apr-20 14:32N 35°22' E 139°51'0 0.1
2016-Apr-20 13:34N 35°21' E 139°51'1 1.2
2016-Apr-20 12:33N 35°22' E 139°49'0 0.1
2016-Apr-20 11:33N 35°22' E 139°49'0 0.0
2016-Apr-20 10:33N 35°22' E 139°49'0 0.0
2016-Apr-20 09:33N 35°22' E 139°49'0 0.0
2016-Apr-20 08:21N 35°22' E 139°49'0 0.0
2016-Apr-20 07:33N 35°22' E 139°49'0 0.0
2016-Apr-20 06:30N 35°22' E 139°49'0 0.0
2016-Apr-20 05:33N 35°22' E 139°49'0 0.0
2016-Apr-20 04:33N 35°22' E 139°49'0 0.0
2016-Apr-20 03:24N 35°22' E 139°49'0 0.0
2016-Apr-20 02:33N 35°22' E 139°49'0 0.1
2016-Apr-20 01:33N 35°22' E 139°49'0 0.0
2016-Apr-20 00:33N 35°22' E 139°49'0 0.0
2016-Apr-19 23:33N 35°22' E 139°49'0 0.0
2016-Apr-19 22:33N 35°22' E 139°49'0 0.0
2016-Apr-19 21:33N 35°22' E 139°49'0 0.0
2016-Apr-19 20:33N 35°22' E 139°49'0 0.0
2016-Apr-19 19:33N 35°22' E 139°49'0 0.0
2016-Apr-19 18:33N 35°22' E 139°49'0 0.0
2016-Apr-19 17:33N 35°22' E 139°49'0 0.0
2016-Apr-19 16:33N 35°22' E 139°49'0 0.0
2016-Apr-19 15:33N 35°22' E 139°49'0 0.0
2016-Apr-19 14:33N 35°22' E 139°49'0 0.0
2016-Apr-19 13:33N 35°22' E 139°49'0 0.0
2016-Apr-19 12:33N 35°22' E 139°49'0 0.0
2016-Apr-19 11:33N 35°22' E 139°49'0 0.0
2016-Apr-19 10:33N 35°22' E 139°49'0 0.0
2016-Apr-19 09:33N 35°22' E 139°49'0 0.1
2016-Apr-19 08:24N 35°22' E 139°49'0 0.0
2016-Apr-19 07:33N 35°22' E 139°49'0 0.0
2016-Apr-19 06:33N 35°22' E 139°49'0 0.0
2016-Apr-19 05:33N 35°22' E 139°49'0 0.0
2016-Apr-19 04:33N 35°22' E 139°49'0 0.0
2016-Apr-19 03:30N 35°22' E 139°49'0 0.0
2016-Apr-19 02:33N 35°22' E 139°49'0 0.1
2016-Apr-19 01:33N 35°22' E 139°49'0 0.0
2016-Apr-19 00:33N 35°22' E 139°49'0 0.0
2016-Apr-18 23:33N 35°22' E 139°49'0 0.0
2016-Apr-18 22:33N 35°22' E 139°49'0 0.0
2016-Apr-18 21:33N 35°22' E 139°49'0 0.0
2016-Apr-18 20:33N 35°22' E 139°49'0 0.0
2016-Apr-18 19:33N 35°22' E 139°49'4 4.5
2016-Apr-18 18:33N 35°20' E 139°44'1110.6
2016-Apr-18 17:33N 35°10' E 139°47'1310.6
2016-Apr-18 16:19N 34°57' E 139°44'56 8.0
2016-Apr-18 09:19N 35°28' E 140°42'9 9.2
2016-Apr-18 08:20N 35°35' E 140°48'7 8.8
2016-Apr-18 07:31N 35°41' E 140°53'19 9.6
2016-Apr-18 05:32N 35°58' E 140°43'3 0.5
2016-Apr-17 23:30N 35°56' E 140°40'0 0.0
2016-Apr-17 21:12N 35°56' E 140°40'0 0.0
2016-Apr-17 17:06N 35°56' E 140°40'0 0.0
2016-Apr-16 18:24N 35°56' E 140°40'0 0.0
2016-Apr-16 15:30N 35°56' E 140°40'0 0.0
2016-Apr-16 14:18N 35°56' E 140°40'0 0.0
2016-Apr-16 13:24N 35°56' E 140°40'0 0.0
2016-Apr-16 11:30N 35°56' E 140°40'0 0.0
2016-Apr-16 10:24N 35°56' E 140°40'0 0.0
2016-Apr-16 09:12N 35°56' E 140°40'0 0.0
2016-Apr-16 08:12N 35°56' E 140°40'0 0.0
2016-Apr-16 05:12N 35°56' E 140°40'0 0.0
2016-Apr-16 04:24N 35°56' E 140°40'0 0.0
2016-Apr-16 03:30N 35°56' E 140°40'0 0.0
2016-Apr-16 02:33N 35°56' E 140°40'0 0.0
2016-Apr-16 01:30N 35°56' E 140°40'0 0.0
2016-Apr-16 00:33N 35°56' E 140°40'0 0.0
2016-Apr-15 23:18N 35°56' E 140°40'0 0.0
2016-Apr-15 22:18N 35°56' E 140°40'0 0.0
2016-Apr-15 20:27N 35°56' E 140°40'0 0.0
2016-Apr-15 19:27N 35°56' E 140°40'0 0.0
2016-Apr-15 18:27N 35°56' E 140°40'0 0.2
2016-Apr-15 17:34N 35°55' E 140°40'6 6.2
2016-Apr-15 16:33N 35°54' E 140°47'1111.4
2016-Apr-15 15:33N 35°44' E 140°54'1210.6
2016-Apr-15 14:25N 35°33' E 140°47'1011.2
2016-Apr-15 13:33N 35°26' E 140°40'1211.2
2016-Apr-15 12:30N 35°16' E 140°32'1111.2
2016-Apr-15 11:29N 35°07' E 140°24'1112.2
2016-Apr-15 10:33N 35°00' E 140°12'1412.0
2016-Apr-15 09:23N 34°53' E 139°58'11 9.9
2016-Apr-15 08:14N 34°56' E 139°44'811.7
2016-Apr-15 07:32N 35°04' E 139°45'1212.1
2016-Apr-15 06:33N 35°16' E 139°45'9 9.0
2016-Apr-15 05:33N 35°25' E 139°47'  

Dump ship's entire track history